sensor_id;sensor_type;location;lat;lon;timestamp;pressure;altitude;pressure_sealevel;temperature;humidity
48792;BME280;34587;48.816;9.420;2023-02-13T00:00:56;100776.50;;;-0.38;100.00
48792;BME280;34587;48.816;9.420;2023-02-13T00:03:21;100778.44;;;-0.34;100.00
48792;BME280;34587;48.816;9.420;2023-02-13T00:05:47;100771.94;;;-0.29;100.00
48792;BME280;34587;48.816;9.420;2023-02-13T00:08:12;100772.81;;;-0.13;100.00
48792;BME280;34587;48.816;9.420;2023-02-13T00:10:37;100779.13;;;-0.21;99.78
48792;BME280;34587;48.816;9.420;2023-02-13T00:13:03;100774.56;;;-0.27;99.82
48792;BME280;34587;48.816;9.420;2023-02-13T00:15:28;100772.81;;;-0.43;99.66
48792;BME280;34587;48.816;9.420;2023-02-13T00:17:53;100775.78;;;-0.50;99.63
48792;BME280;34587;48.816;9.420;2023-02-13T00:20:18;100777.97;;;-0.56;98.73
48792;BME280;34587;48.816;9.420;2023-02-13T00:22:44;100785.25;;;-0.62;98.72
48792;BME280;34587;48.816;9.420;2023-02-13T00:25:09;100773.16;;;-0.66;98.89
48792;BME280;34587;48.816;9.420;2023-02-13T00:27:35;100777.88;;;-0.72;99.02
48792;BME280;34587;48.816;9.420;2023-02-13T00:30:00;100780.47;;;-0.86;99.28
48792;BME280;34587;48.816;9.420;2023-02-13T00:32:26;100773.47;;;-0.75;99.40
48792;BME280;34587;48.816;9.420;2023-02-13T00:34:51;100779.09;;;-0.81;99.42
48792;BME280;34587;48.816;9.420;2023-02-13T00:37:16;100777.34;;;-0.82;99.85
48792;BME280;34587;48.816;9.420;2023-02-13T00:39:41;100776.38;;;-0.97;100.00
48792;BME280;34587;48.816;9.420;2023-02-13T00:42:07;100775.34;;;-1.00;100.00
48792;BME280;34587;48.816;9.420;2023-02-13T00:44:32;100779.03;;;-0.95;100.00
48792;BME280;34587;48.816;9.420;2023-02-13T00:46:58;100777.72;;;-0.89;100.00
48792;BME280;34587;48.816;9.420;2023-02-13T00:49:23;100770.88;;;-0.62;100.00
48792;BME280;34587;48.816;9.420;2023-02-13T00:51:48;100772.94;;;-0.69;100.00
48792;BME280;34587;48.816;9.420;2023-02-13T00:54:14;100771.13;;;-0.72;100.00
48792;BME280;34587;48.816;9.420;2023-02-13T00:56:39;100772.63;;;-0.61;100.00
48792;BME280;34587;48.816;9.420;2023-02-13T00:59:04;100773.00;;;-0.83;99.68
48792;BME280;34587;48.816;9.420;2023-02-13T05:15:52;100817.00;;;-2.06;100.00
48792;BME280;34587;48.816;9.420;2023-02-13T05:18:18;100817.78;;;-2.07;100.00
48792;BME280;34587;48.816;9.420;2023-02-13T05:20:43;100819.16;;;-1.99;100.00
48792;BME280;34587;48.816;9.420;2023-02-13T05:23:13;100819.97;;;-1.87;100.00
48792;BME280;34587;48.816;9.420;2023-02-13T05:25:48;100817.34;;;-1.88;100.00
48792;BME280;34587;48.816;9.420;2023-02-13T05:28:15;100812.16;;;-2.03;100.00
48792;BME280;34587;48.816;9.420;2023-02-13T05:31:15;100813.69;;;-2.05;100.00
48792;BME280;34587;48.816;9.420;2023-02-13T05:33:40;100822.69;;;-1.97;100.00
48792;BME280;34587;48.816;9.420;2023-02-13T05:36:06;100828.72;;;-2.08;100.00
48792;BME280;34587;48.816;9.420;2023-02-13T05:38:31;100823.84;;;-2.05;100.00
48792;BME280;34587;48.816;9.420;2023-02-13T05:40:58;100825.81;;;-1.88;100.00
48792;BME280;34587;48.816;9.420;2023-02-13T05:43:24;100823.56;;;-1.96;100.00
48792;BME280;34587;48.816;9.420;2023-02-13T05:45:50;100817.00;;;-1.79;100.00
48792;BME280;34587;48.816;9.420;2023-02-13T05:48:16;100822.50;;;-1.87;100.00
48792;BME280;34587;48.816;9.420;2023-02-13T05:50:41;100813.91;;;-1.75;100.00
48792;BME280;34587;48.816;9.420;2023-02-13T05:53:07;100809.91;;;-1.72;100.00
48792;BME280;34587;48.816;9.420;2023-02-13T05:55:32;100810.78;;;-1.71;100.00
48792;BME280;34587;48.816;9.420;2023-02-13T05:57:57;100810.78;;;-1.71;100.00
48792;BME280;34587;48.816;9.420;2023-02-13T06:00:23;100813.50;;;-1.82;100.00
48792;BME280;34587;48.816;9.420;2023-02-13T06:02:49;100814.09;;;-1.72;100.00
48792;BME280;34587;48.816;9.420;2023-02-13T06:05:14;100810.56;;;-1.74;100.00
48792;BME280;34587;48.816;9.420;2023-02-13T06:07:39;100805.31;;;-1.77;100.00
48792;BME280;34587;48.816;9.420;2023-02-13T06:10:05;100803.94;;;-1.72;100.00
48792;BME280;34587;48.816;9.420;2023-02-13T06:12:30;100814.09;;;-1.59;100.00
48792;BME280;34587;48.816;9.420;2023-02-13T06:14:56;100816.44;;;-1.62;100.00
48792;BME280;34587;48.816;9.420;2023-02-13T06:17:21;100814.47;;;-1.66;100.00
48792;BME280;34587;48.816;9.420;2023-02-13T06:19:46;100813.91;;;-1.62;100.00
48792;BME280;34587;48.816;9.420;2023-02-13T06:22:11;100808.81;;;-1.75;100.00
48792;BME280;34587;48.816;9.420;2023-02-13T06:24:37;100817.22;;;-1.63;100.00
48792;BME280;34587;48.816;9.420;2023-02-13T06:27:02;100811.84;;;-1.68;100.00
48792;BME280;34587;48.816;9.420;2023-02-13T06:29:27;100820.94;;;-1.71;100.00
48792;BME280;34587;48.816;9.420;2023-02-13T06:31:53;100820.16;;;-1.57;100.00
48792;BME280;34587;48.816;9.420;2023-02-13T06:34:18;100821.53;;;-1.62;100.00
48792;BME280;34587;48.816;9.420;2023-02-13T06:36:43;100824.06;;;-1.75;100.00
48792;BME280;34587;48.816;9.420;2023-02-13T06:39:09;100823.00;;;-1.92;100.00
48792;BME280;34587;48.816;9.420;2023-02-13T06:41:35;100822.31;;;-1.76;100.00
48792;BME280;34587;48.816;9.420;2023-02-13T06:44:00;100822.91;;;-1.67;100.00
48792;BME280;34587;48.816;9.420;2023-02-13T06:46:26;100822.91;;;-1.67;100.00
48792;BME280;34587;48.816;9.420;2023-02-13T06:48:51;100826.13;;;-1.83;100.00
48792;BME280;34587;48.816;9.420;2023-02-13T06:51:16;100829.41;;;-1.84;100.00
48792;BME280;34587;48.816;9.420;2023-02-13T06:53:41;100828.75;;;-1.82;100.00
48792;BME280;34587;48.816;9.420;2023-02-13T06:56:08;100831.00;;;-1.86;100.00
48792;BME280;34587;48.816;9.420;2023-02-13T06:58:35;100825.44;;;-1.81;100.00
48792;BME280;34587;48.816;9.420;2023-02-13T07:01:00;100831.28;;;-1.82;100.00
48792;BME280;34587;48.816;9.420;2023-02-13T07:03:26;100828.75;;;-1.82;100.00
48792;BME280;34587;48.816;9.420;2023-02-13T07:05:51;100831.09;;;-1.85;100.00
48792;BME280;34587;48.816;9.420;2023-02-13T07:08:16;100833.63;;;-1.85;100.00
48792;BME280;34587;48.816;9.420;2023-02-13T07:10:42;100829.25;;;-1.87;100.00
48792;BME280;34587;48.816;9.420;2023-02-13T07:13:08;100829.41;;;-1.84;100.00
48792;BME280;34587;48.816;9.420;2023-02-13T07:15:34;100835.88;;;-2.02;100.00
48792;BME280;34587;48.816;9.420;2023-02-13T07:17:59;100837.13;;;-2.09;100.00
48792;BME280;34587;48.816;9.420;2023-02-13T07:20:25;100841.41;;;-2.21;100.00
48792;BME280;34587;48.816;9.420;2023-02-13T07:22:51;100844.16;;;-2.05;100.00
48792;BME280;34587;48.816;9.420;2023-02-13T07:25:17;100842.34;;;-1.68;100.00
48792;BME280;34587;48.816;9.420;2023-02-13T07:27:42;100840.66;;;-1.81;100.00
48792;BME280;34587;48.816;9.420;2023-02-13T07:30:08;100843.44;;;-1.64;100.00
48792;BME280;34587;48.816;9.420;2023-02-13T07:32:33;100842.06;;;-1.59;99.35
48792;BME280;34587;48.816;9.420;2023-02-13T07:34:59;100841.16;;;-1.60;98.93
48792;BME280;34587;48.816;9.420;2023-02-13T07:37:26;100843.28;;;-1.26;97.98
48792;BME280;34587;48.816;9.420;2023-02-13T07:39:52;100832.19;;;-1.00;96.87
48792;BME280;34587;48.816;9.420;2023-02-13T07:42:17;100835.38;;;-0.89;95.88
48792;BME280;34587;48.816;9.420;2023-02-13T07:44:43;100838.13;;;-0.86;93.60
48792;BME280;34587;48.816;9.420;2023-02-13T07:47:08;100845.25;;;-0.81;94.04
48792;BME280;34587;48.816;9.420;2023-02-13T07:49:34;100845.25;;;-0.81;93.98
48792;BME280;34587;48.816;9.420;2023-02-13T07:52:01;100842.06;;;-0.91;94.66
48792;BME280;34587;48.816;9.420;2023-02-13T07:54:26;100845.00;;;-0.70;94.80
48792;BME280;34587;48.816;9.420;2023-02-13T07:56:51;100853.00;;;-0.64;93.65
48792;BME280;34587;48.816;9.420;2023-02-13T07:59:17;100845.03;;;-0.56;93.51
48792;BME280;34587;48.816;9.420;2023-02-13T08:01:42;100838.84;;;-0.46;93.28
48792;BME280;34587;48.816;9.420;2023-02-13T08:04:07;100838.16;;;-0.29;93.29
48792;BME280;34587;48.816;9.420;2023-02-13T08:06:33;100841.75;;;-0.10;92.85
48792;BME280;34587;48.816;9.420;2023-02-13T08:08:58;100832.97;;;0.14;91.14
48792;BME280;34587;48.816;9.420;2023-02-13T08:11:42;100838.69;;;0.40;90.51
48792;BME280;34587;48.816;9.420;2023-02-13T08:14:21;100830.28;;;0.57;88.56
48792;BME280;34587;48.816;9.420;2023-02-13T08:16:47;100827.47;;;0.84;87.46
48792;BME280;34587;48.816;9.420;2023-02-13T08:19:12;100818.44;;;2.77;81.00
48792;BME280;34587;48.816;9.420;2023-02-13T08:21:37;100808.19;;;4.80;70.25
48792;BME280;34587;48.816;9.420;2023-02-13T08:24:05;100807.38;;;7.12;60.58
48792;BME280;34587;48.816;9.420;2023-02-13T08:26:30;100799.81;;;8.90;55.35
48792;BME280;34587;48.816;9.420;2023-02-13T08:28:56;100808.94;;;9.59;52.45
48792;BME280;34587;48.816;9.420;2023-02-13T08:31:21;100805.69;;;9.71;51.40
48792;BME280;34587;48.816;9.420;2023-02-13T08:33:47;100806.03;;;9.88;50.57
48792;BME280;34587;48.816;9.420;2023-02-13T08:36:12;100790.97;;;12.34;45.54
48792;BME280;34587;48.816;9.420;2023-02-13T08:38:37;100784.72;;;14.23;39.76
48792;BME280;34587;48.816;9.420;2023-02-13T08:41:03;100780.50;;;16.04;36.87
48792;BME280;34587;48.816;9.420;2023-02-13T08:43:28;100805.44;;;13.40;39.88
48792;BME280;34587;48.816;9.420;2023-02-13T08:45:57;100782.31;;;16.87;35.08
48792;BME280;34587;48.816;9.420;2023-02-13T08:48:22;100777.97;;;18.12;32.71
48792;BME280;34587;48.816;9.420;2023-02-13T08:50:48;100771.72;;;19.54;31.69
48792;BME280;34587;48.816;9.420;2023-02-13T08:53:13;100778.50;;;21.01;29.09
48792;BME280;34587;48.816;9.420;2023-02-13T08:55:38;100788.75;;;19.36;29.99
48792;BME280;34587;48.816;9.420;2023-02-13T08:58:03;100777.50;;;20.41;27.96
48792;BME280;34587;48.816;9.420;2023-02-13T09:00:29;100786.69;;;21.21;27.64
48792;BME280;34587;48.816;9.420;2023-02-13T09:02:59;100783.06;;;21.25;27.17
48792;BME280;34587;48.816;9.420;2023-02-13T09:05:25;100784.88;;;19.93;28.87
48792;BME280;34587;48.816;9.420;2023-02-13T09:07:51;100778.03;;;21.75;27.43
48792;BME280;34587;48.816;9.420;2023-02-13T09:10:17;100785.72;;;21.55;27.20
48792;BME280;34587;48.816;9.420;2023-02-13T09:12:42;100786.56;;;21.55;26.43
48792;BME280;34587;48.816;9.420;2023-02-13T09:15:08;100786.88;;;21.15;27.40
48792;BME280;34587;48.816;9.420;2023-02-13T09:17:33;100780.00;;;23.45;25.60
48792;BME280;34587;48.816;9.420;2023-02-13T09:19:58;100789.31;;;21.23;26.70
48792;BME280;34587;48.816;9.420;2023-02-13T09:22:24;100787.56;;;22.84;25.84
48792;BME280;34587;48.816;9.420;2023-02-13T09:24:49;100774.78;;;23.88;24.62
48792;BME280;34587;48.816;9.420;2023-02-13T09:27:14;100779.28;;;22.45;25.95
48792;BME280;34587;48.816;9.420;2023-02-13T09:29:40;100783.56;;;26.05;22.32
48792;BME280;34587;48.816;9.420;2023-02-13T09:32:05;100790.38;;;25.74;22.57
48792;BME280;34587;48.816;9.420;2023-02-13T09:34:31;100785.50;;;25.08;23.63
48792;BME280;34587;48.816;9.420;2023-02-13T09:36:56;100783.75;;;24.68;23.09
48792;BME280;34587;48.816;9.420;2023-02-13T09:39:21;100786.91;;;22.27;26.20
48792;BME280;34587;48.816;9.420;2023-02-13T09:41:48;100787.13;;;22.21;26.30
48792;BME280;34587;48.816;9.420;2023-02-13T09:44:24;100786.44;;;23.83;24.73
48792;BME280;34587;48.816;9.420;2023-02-13T09:47:26;100786.75;;;23.07;25.79
48792;BME280;34587;48.816;9.420;2023-02-13T09:50:00;100782.47;;;23.50;25.88
48792;BME280;34587;48.816;9.420;2023-02-13T09:52:32;100783.25;;;23.52;25.32
48792;BME280;34587;48.816;9.420;2023-02-13T09:54:57;100781.81;;;23.67;25.10
48792;BME280;34587;48.816;9.420;2023-02-13T09:57:45;100779.06;;;22.51;26.00
48792;BME280;34587;48.816;9.420;2023-02-13T10:00:19;100784.06;;;21.51;27.77
48792;BME280;34587;48.816;9.420;2023-02-13T10:05:45;100787.41;;;18.73;31.73
48792;BME280;34587;48.816;9.420;2023-02-13T10:16:55;100792.59;;;17.75;32.95
48792;BME280;34587;48.816;9.420;2023-02-13T10:21:57;100781.13;;;18.33;32.70
48792;BME280;34587;48.816;9.420;2023-02-13T10:24:30;100782.81;;;19.26;31.15
48792;BME280;34587;48.816;9.420;2023-02-13T10:27:02;100791.47;;;17.25;34.61
48792;BME280;34587;48.816;9.420;2023-02-13T10:29:50;100778.47;;;19.24;31.62
48792;BME280;34587;48.816;9.420;2023-02-13T10:35:23;100773.50;;;21.52;28.41
48792;BME280;34587;48.816;9.420;2023-02-13T10:37:55;100763.06;;;19.47;31.06
48792;BME280;34587;48.816;9.420;2023-02-13T10:40:23;100768.44;;;19.43;31.08
48792;BME280;34587;48.816;9.420;2023-02-13T10:43:07;100766.34;;;19.60;31.34
48792;BME280;34587;48.816;9.420;2023-02-13T10:45:58;100767.00;;;18.40;32.59
48792;BME280;34587;48.816;9.420;2023-02-13T10:48:49;100769.63;;;18.40;32.25
48792;BME280;34587;48.816;9.420;2023-02-13T10:51:38;100762.22;;;18.12;33.08
48792;BME280;34587;48.816;9.420;2023-02-13T10:54:16;100746.28;;;19.92;30.44
48792;BME280;34587;48.816;9.420;2023-02-13T10:56:58;100736.81;;;21.98;27.58
48792;BME280;34587;48.816;9.420;2023-02-13T10:59:38;100739.13;;;20.65;29.45
48792;BME280;34587;48.816;9.420;2023-02-13T11:04:45;100739.00;;;20.03;30.64
48792;BME280;34587;48.816;9.420;2023-02-13T11:07:14;100731.69;;;20.79;28.67
48792;BME280;34587;48.816;9.420;2023-02-13T11:09:43;100731.44;;;20.58;29.12
48792;BME280;34587;48.816;9.420;2023-02-13T11:14:54;100733.44;;;18.09;32.62
48792;BME280;34587;48.816;9.420;2023-02-13T11:17:21;100737.09;;;16.71;35.23
48792;BME280;34587;48.816;9.420;2023-02-13T11:19:49;100728.75;;;18.27;33.20
48792;BME280;34587;48.816;9.420;2023-02-13T11:22:44;100732.41;;;18.16;32.21
48792;BME280;34587;48.816;9.420;2023-02-13T11:25:24;100720.53;;;18.90;31.41
48792;BME280;34587;48.816;9.420;2023-02-13T11:28:16;100720.00;;;19.14;31.24
48792;BME280;34587;48.816;9.420;2023-02-13T11:30:41;100716.75;;;19.42;31.17
48792;BME280;34587;48.816;9.420;2023-02-13T11:35:41;100733.50;;;17.47;33.74
48792;BME280;34587;48.816;9.420;2023-02-13T11:38:25;100742.56;;;15.45;36.49
48792;BME280;34587;48.816;9.420;2023-02-13T11:40:52;100727.16;;;18.64;32.18
48792;BME280;34587;48.816;9.420;2023-02-13T11:43:34;100725.69;;;18.96;32.00
48792;BME280;34587;48.816;9.420;2023-02-13T11:48:27;100713.03;;;20.56;29.65
48792;BME280;34587;48.816;9.420;2023-02-13T11:50:54;100727.72;;;20.31;29.11
48792;BME280;34587;48.816;9.420;2023-02-13T11:53:23;100718.97;;;19.96;29.30
48792;BME280;34587;48.816;9.420;2023-02-13T11:56:09;100717.13;;;20.34;28.52
48792;BME280;34587;48.816;9.420;2023-02-13T11:58:35;100730.84;;;16.86;33.88
48792;BME280;34587;48.816;9.420;2023-02-13T12:01:23;100714.22;;;20.10;30.15
48792;BME280;34587;48.816;9.420;2023-02-13T12:04:16;100720.50;;;17.97;32.04
48792;BME280;34587;48.816;9.420;2023-02-13T12:07:09;100722.63;;;17.15;34.27
48792;BME280;34587;48.816;9.420;2023-02-13T12:09:38;100725.19;;;16.42;34.84
48792;BME280;34587;48.816;9.420;2023-02-13T12:12:05;100719.34;;;16.19;36.53
48792;BME280;34587;48.816;9.420;2023-02-13T12:14:39;100710.19;;;15.72;36.43
48792;BME280;34587;48.816;9.420;2023-02-13T12:17:11;100721.66;;;15.45;36.83
48792;BME280;34587;48.816;9.420;2023-02-13T12:19:41;100714.47;;;16.67;35.12
48792;BME280;34587;48.816;9.420;2023-02-13T12:32:59;100700.44;;;17.39;34.72
48792;BME280;34587;48.816;9.420;2023-02-13T12:35:38;100698.56;;;17.47;34.03
48792;BME280;34587;48.816;9.420;2023-02-13T12:46:29;100707.19;;;11.57;47.74
48792;BME280;34587;48.816;9.420;2023-02-13T13:02:50;100688.28;;;10.86;51.88
48792;BME280;34587;48.816;9.420;2023-02-13T13:11:11;100690.41;;;10.47;51.98
48792;BME280;34587;48.816;9.420;2023-02-13T13:19:30;100684.41;;;10.50;52.30
48792;BME280;34587;48.816;9.420;2023-02-13T13:22:13;100676.19;;;10.21;53.18
48792;BME280;34587;48.816;9.420;2023-02-13T13:25:04;100678.53;;;10.65;53.05
48792;BME280;34587;48.816;9.420;2023-02-13T13:27:38;100673.84;;;10.38;52.72
48792;BME280;34587;48.816;9.420;2023-02-13T13:30:21;100673.84;;;10.38;52.79
48792;BME280;34587;48.816;9.420;2023-02-13T13:33:10;100671.25;;;10.38;53.20
48792;BME280;34587;48.816;9.420;2023-02-13T13:35:42;100670.66;;;10.59;52.35
48792;BME280;34587;48.816;9.420;2023-02-13T13:38:22;100672.94;;;10.34;52.83
48792;BME280;34587;48.816;9.420;2023-02-13T13:41:07;100670.50;;;10.45;53.41
48792;BME280;34587;48.816;9.420;2023-02-13T13:46:09;100666.22;;;10.48;52.57
48792;BME280;34587;48.816;9.420;2023-02-13T13:49:05;100668.78;;;10.47;53.01
48792;BME280;34587;48.816;9.420;2023-02-13T13:51:33;100669.31;;;10.23;53.49
48792;BME280;34587;48.816;9.420;2023-02-13T13:59:53;100660.16;;;10.48;52.59
48792;BME280;34587;48.816;9.420;2023-02-13T14:05:09;100660.91;;;10.38;53.58
48792;BME280;34587;48.816;9.420;2023-02-13T14:07:41;100663.25;;;10.22;53.86
48792;BME280;34587;48.816;9.420;2023-02-13T14:13:28;100656.38;;;10.24;53.94
48792;BME280;34587;48.816;9.420;2023-02-13T14:15:54;100655.47;;;10.21;53.83
48792;BME280;34587;48.816;9.420;2023-02-13T14:18:21;100657.16;;;10.19;54.97
48792;BME280;34587;48.816;9.420;2023-02-13T14:28:35;100650.34;;;10.24;53.75
48792;BME280;34587;48.816;9.420;2023-02-13T14:31:20;100657.63;;;9.92;55.21
48792;BME280;34587;48.816;9.420;2023-02-13T14:36:31;100658.88;;;9.61;56.31
48792;BME280;34587;48.816;9.420;2023-02-13T14:39:19;100663.72;;;9.42;56.96
48792;BME280;34587;48.816;9.420;2023-02-13T14:44:21;100668.97;;;9.45;56.80
48792;BME280;34587;48.816;9.420;2023-02-13T14:46:49;100664.91;;;9.60;56.69
48792;BME280;34587;48.816;9.420;2023-02-13T14:49:21;100669.63;;;9.34;56.36
48792;BME280;34587;48.816;9.420;2023-02-13T14:54:38;100671.19;;;9.24;58.08
48792;BME280;34587;48.816;9.420;2023-02-13T14:57:15;100669.31;;;9.17;57.96
48792;BME280;34587;48.816;9.420;2023-02-13T14:59:46;100676.03;;;9.06;58.35
48792;BME280;34587;48.816;9.420;2023-02-13T15:02:33;100669.16;;;9.08;58.44
48792;BME280;34587;48.816;9.420;2023-02-13T15:05:05;100666.34;;;8.95;58.47
48792;BME280;34587;48.816;9.420;2023-02-13T15:07:36;100668.75;;;8.86;58.98
48792;BME280;34587;48.816;9.420;2023-02-13T15:12:57;100660.81;;;8.77;59.16
48792;BME280;34587;48.816;9.420;2023-02-13T15:15:28;100657.97;;;8.65;59.35
48792;BME280;34587;48.816;9.420;2023-02-13T15:17:59;100655.59;;;8.35;60.33
48792;BME280;34587;48.816;9.420;2023-02-13T15:20:32;100660.81;;;8.36;60.32
48792;BME280;34587;48.816;9.420;2023-02-13T15:22:58;100659.88;;;8.33;60.70
48792;BME280;34587;48.816;9.420;2023-02-13T15:25:31;100652.63;;;8.16;61.18
48792;BME280;34587;48.816;9.420;2023-02-13T15:27:58;100654.22;;;8.11;61.29
48792;BME280;34587;48.816;9.420;2023-02-13T15:30:30;100647.94;;;7.98;61.86
48792;BME280;34587;48.816;9.420;2023-02-13T15:33:00;100657.34;;;7.96;61.92
48792;BME280;34587;48.816;9.420;2023-02-13T15:35:30;100654.53;;;7.87;62.50
48792;BME280;34587;48.816;9.420;2023-02-13T15:37:56;100657.94;;;7.85;62.41
48792;BME280;34587;48.816;9.420;2023-02-13T15:40:25;100654.31;;;7.78;62.73
48792;BME280;34587;48.816;9.420;2023-02-13T15:42:52;100648.59;;;7.54;63.36
48792;BME280;34587;48.816;9.420;2023-02-13T15:45:19;100661.84;;;7.34;63.40
48792;BME280;34587;48.816;9.420;2023-02-13T15:47:45;100663.28;;;7.23;63.98
48792;BME280;34587;48.816;9.420;2023-02-13T15:50:34;100657.19;;;7.19;64.91
48792;BME280;34587;48.816;9.420;2023-02-13T15:53:03;100657.03;;;7.13;64.86
48792;BME280;34587;48.816;9.420;2023-02-13T15:55:30;100663.75;;;7.07;65.30
48792;BME280;34587;48.816;9.420;2023-02-13T15:57:58;100660.75;;;6.91;65.58
48792;BME280;34587;48.816;9.420;2023-02-13T16:02:57;100674.63;;;6.66;66.67
48792;BME280;34587;48.816;9.420;2023-02-13T16:05:25;100677.00;;;6.59;66.89
48792;BME280;34587;48.816;9.420;2023-02-13T16:07:56;100674.63;;;6.36;67.43
48792;BME280;34587;48.816;9.420;2023-02-13T16:10:33;100670.69;;;6.19;67.79
48792;BME280;34587;48.816;9.420;2023-02-13T16:13:02;100671.19;;;6.07;68.53
48792;BME280;34587;48.816;9.420;2023-02-13T16:15:29;100665.81;;;6.00;68.99
48792;BME280;34587;48.816;9.420;2023-02-13T16:17:55;100671.44;;;5.89;69.87
48792;BME280;34587;48.816;9.420;2023-02-13T16:20:23;100670.13;;;5.75;70.03
48792;BME280;34587;48.816;9.420;2023-02-13T16:22:52;100669.75;;;5.63;70.71
48792;BME280;34587;48.816;9.420;2023-02-13T16:25:24;100667.28;;;5.66;70.47
48792;BME280;34587;48.816;9.420;2023-02-13T16:27:55;100671.72;;;5.45;71.16
48792;BME280;34587;48.816;9.420;2023-02-13T16:30:26;100675.47;;;5.29;71.82
48792;BME280;34587;48.816;9.420;2023-02-13T16:35:50;100690.59;;;4.96;72.88
48792;BME280;34587;48.816;9.420;2023-02-13T16:38:30;100692.41;;;4.74;73.66
48792;BME280;34587;48.816;9.420;2023-02-13T16:40:58;100691.78;;;4.57;74.40
48792;BME280;34587;48.816;9.420;2023-02-13T16:43:41;100681.69;;;4.39;74.97
48792;BME280;34587;48.816;9.420;2023-02-13T16:51:09;100706.88;;;4.05;76.08
48792;BME280;34587;48.816;9.420;2023-02-13T16:53:35;100698.81;;;3.96;76.55
48792;BME280;34587;48.816;9.420;2023-02-13T16:56:04;100694.22;;;3.87;76.92
48792;BME280;34587;48.816;9.420;2023-02-13T16:58:30;100704.84;;;3.75;77.53
48792;BME280;34587;48.816;9.420;2023-02-13T17:00:56;100702.72;;;3.65;78.00
48792;BME280;34587;48.816;9.420;2023-02-13T17:03:21;100707.66;;;3.60;78.16
48792;BME280;34587;48.816;9.420;2023-02-13T17:05:46;100709.13;;;3.54;78.52
48792;BME280;34587;48.816;9.420;2023-02-13T17:08:12;100695.91;;;3.45;79.04
48792;BME280;34587;48.816;9.420;2023-02-13T17:10:38;100704.97;;;3.37;79.32
48792;BME280;34587;48.816;9.420;2023-02-13T17:15:40;100706.19;;;3.25;80.02
48792;BME280;34587;48.816;9.420;2023-02-13T17:18:06;100706.88;;;3.21;80.17
48792;BME280;34587;48.816;9.420;2023-02-13T17:20:33;100714.31;;;3.15;80.39
48792;BME280;34587;48.816;9.420;2023-02-13T17:23:01;100720.63;;;3.04;80.68
48792;BME280;34587;48.816;9.420;2023-02-13T17:25:35;100720.97;;;2.92;81.12
48792;BME280;34587;48.816;9.420;2023-02-13T17:28:10;100725.69;;;2.83;81.41
48792;BME280;34587;48.816;9.420;2023-02-13T17:30:36;100725.53;;;2.80;82.02
48792;BME280;34587;48.816;9.420;2023-02-13T17:33:09;100723.13;;;2.83;82.13
48792;BME280;34587;48.816;9.420;2023-02-13T17:35:36;100730.09;;;2.86;81.96
48792;BME280;34587;48.816;9.420;2023-02-13T17:38:01;100724.25;;;2.70;82.31
48792;BME280;34587;48.816;9.420;2023-02-13T17:40:26;100732.97;;;2.74;82.57
48792;BME280;34587;48.816;9.420;2023-02-13T17:42:56;100729.25;;;2.67;82.65
48792;BME280;34587;48.816;9.420;2023-02-13T17:45:24;100729.00;;;2.61;82.99
48792;BME280;34587;48.816;9.420;2023-02-13T17:47:50;100726.78;;;2.51;83.44
48792;BME280;34587;48.816;9.420;2023-02-13T17:50:15;100732.38;;;2.42;83.71
48792;BME280;34587;48.816;9.420;2023-02-13T17:52:42;100726.09;;;2.36;84.16
48792;BME280;34587;48.816;9.420;2023-02-13T17:55:16;100732.91;;;2.35;84.20
48792;BME280;34587;48.816;9.420;2023-02-13T17:57:42;100726.47;;;2.25;84.51
48792;BME280;34587;48.816;9.420;2023-02-13T18:00:08;100734.97;;;2.24;84.70
48792;BME280;34587;48.816;9.420;2023-02-13T18:02:34;100734.16;;;2.25;84.57
48792;BME280;34587;48.816;9.420;2023-02-13T18:04:59;100745.84;;;2.20;84.90
48792;BME280;34587;48.816;9.420;2023-02-13T18:07:25;100740.72;;;2.20;84.83
48792;BME280;34587;48.816;9.420;2023-02-13T18:09:50;100748.13;;;2.14;84.75
48792;BME280;34587;48.816;9.420;2023-02-13T18:12:19;100746.38;;;2.13;84.83
48792;BME280;34587;48.816;9.420;2023-02-13T18:14:45;100748.50;;;2.04;85.19
48792;BME280;34587;48.816;9.420;2023-02-13T18:17:10;100750.22;;;2.05;85.46
48792;BME280;34587;48.816;9.420;2023-02-13T18:19:36;100752.63;;;2.02;85.37
48792;BME280;34587;48.816;9.420;2023-02-13T18:22:03;100751.53;;;2.15;87.15
48792;BME280;34587;48.816;9.420;2023-02-13T18:24:30;100756.81;;;2.00;86.27
48792;BME280;34587;48.816;9.420;2023-02-13T18:26:56;100759.28;;;2.16;85.99
48792;BME280;34587;48.816;9.420;2023-02-13T18:29:21;100750.78;;;2.17;85.05
48792;BME280;34587;48.816;9.420;2023-02-13T18:31:47;100759.84;;;1.93;85.49
48792;BME280;34587;48.816;9.420;2023-02-13T18:34:12;100759.31;;;1.98;88.82
48792;BME280;34587;48.816;9.420;2023-02-13T18:36:37;100763.81;;;1.86;87.29
48792;BME280;34587;48.816;9.420;2023-02-13T18:39:03;100768.75;;;1.65;87.54
48792;BME280;34587;48.816;9.420;2023-02-13T18:41:29;100770.81;;;1.90;90.38
48792;BME280;34587;48.816;9.420;2023-02-13T18:43:55;100769.03;;;1.71;88.66
48792;BME280;34587;48.816;9.420;2023-02-13T18:46:22;100773.34;;;1.72;88.28
48792;BME280;34587;48.816;9.420;2023-02-13T18:48:48;100774.09;;;1.53;87.20
48792;BME280;34587;48.816;9.420;2023-02-13T18:51:13;100774.19;;;1.39;87.69
48792;BME280;34587;48.816;9.420;2023-02-13T18:53:38;100771.66;;;1.39;87.78
48792;BME280;34587;48.816;9.420;2023-02-13T18:56:05;100778.19;;;1.34;88.25
48792;BME280;34587;48.816;9.420;2023-02-13T18:58:31;100775.34;;;1.27;88.22
48792;BME280;34587;48.816;9.420;2023-02-13T19:01:13;100779.78;;;1.15;88.72
48792;BME280;34587;48.816;9.420;2023-02-13T19:03:40;100777.25;;;1.15;89.07
48792;BME280;34587;48.816;9.420;2023-02-13T19:06:08;100774.56;;;1.12;89.34
48792;BME280;34587;48.816;9.420;2023-02-13T19:08:34;100768.97;;;1.03;89.89
48792;BME280;34587;48.816;9.420;2023-02-13T19:11:04;100766.56;;;0.90;90.13
48792;BME280;34587;48.816;9.420;2023-02-13T19:13:29;100770.72;;;0.88;90.33
48792;BME280;34587;48.816;9.420;2023-02-13T19:16:01;100773.03;;;0.99;90.17